Amistad — WCZ9672 — position and weather

sailwx.info

Track history (hours):
 
Tides and Currents Weather Stations Pressure Air Temp Water Temp Dewpoint Dewpoint Depression Visibility Wind Speed Wind Dir Waves Ship Positions

Amistad (United States)

Ship's website: http://www.amistadvoyages.org/

Owner: AMISTAD AMERICA, New Haven, CT. More information available from US FCC via Universal Licensing System and Coast Guard Vessel Documentation Center.

Last reported at 2018-Oct-25 11:33 UTC. Time now 2018-Dec-11 00:50 UTC.
Position N 41°16' W 072°09'.
Warning: this ship's position is 46 days out of date.

Length 39 m; draft 3.4 m.

Type: Sailing vessel. MMSI: 369547000.

Date/timePositionNaut miles runAvg speedWind from/ knotsBaromVisibWave heightAir tempDewpointWater temp
2018-Oct-25 11:33N 41°16' W 072°09'0 6.9
2018-Oct-25 11:30N 41°17' W 072°09'2 0.1
2018-Oct-24 17:28N 41°18' W 072°12'1 3.0
2018-Oct-24 17:03N 41°17' W 072°12'0 2.2
2018-Oct-24 16:59N 41°17' W 072°12'4 8.8
2018-Oct-24 16:30N 41°15' W 072°17'4 9.1
2018-Oct-24 16:02N 41°13' W 072°22'0 8.8
2018-Oct-24 16:00N 41°13' W 072°22'4 7.6
2018-Oct-24 15:30N 41°13' W 072°27'4 8.4
2018-Oct-24 15:00N 41°14' W 072°33'4 7.3
2018-Oct-24 14:30N 41°14' W 072°38'3 6.4
2018-Oct-24 14:03N 41°13' W 072°41'0 6.6
2018-Oct-24 14:00N 41°13' W 072°42'5 6.9
2018-Oct-24 13:20N 41°13' W 072°48'  
Track history (hours):
 
Tides and Currents Weather Stations Pressure Air Temp Water Temp Dewpoint Dewpoint Depression Visibility Wind Speed Wind Dir Waves Ship Positions

Amistad (United States)

Ship's website: http://www.amistadvoyages.org/

Owner: AMISTAD AMERICA, New Haven, CT. More information available from US FCC via Universal Licensing System and Coast Guard Vessel Documentation Center.

Last reported at 2018-Oct-25 11:33 UTC. Time now 2018-Dec-11 00:50 UTC.
Position N 41°16' W 072°09'.
Warning: this ship's position is 46 days out of date.

Length 39 m; draft 3.4 m.

Type: Sailing vessel. MMSI: 369547000.

Date/timePositionNaut miles runAvg speedWind from/ knotsBaromVisibWave heightAir tempDewpointWater temp
2018-Oct-25 11:33N 41°16' W 072°09'0 6.9
2018-Oct-25 11:30N 41°17' W 072°09'2 0.1
2018-Oct-24 17:28N 41°18' W 072°12'1 3.0
2018-Oct-24 17:03N 41°17' W 072°12'0 2.2
2018-Oct-24 16:59N 41°17' W 072°12'4 8.8
2018-Oct-24 16:30N 41°15' W 072°17'4 9.1
2018-Oct-24 16:02N 41°13' W 072°22'0 8.8
2018-Oct-24 16:00N 41°13' W 072°22'4 7.6
2018-Oct-24 15:30N 41°13' W 072°27'4 8.4
2018-Oct-24 15:00N 41°14' W 072°33'4 7.3
2018-Oct-24 14:30N 41°14' W 072°38'3 6.4
2018-Oct-24 14:03N 41°13' W 072°41'0 6.6
2018-Oct-24 14:00N 41°13' W 072°42'5 6.9
2018-Oct-24 13:20N 41°13' W 072°48'  

Dump ship's entire track history